sensor_id;sensor_type;location;lat;lon;timestamp;noise_LAeq;noise_LA_min;noise_LA_max;noise_LA01;noise_LA95
49543;Laerm;35435;48.792;8.962;2022-09-21T00:01:05;46.35;43.63;51.01;;
49543;Laerm;35435;48.792;8.962;2022-09-21T00:03:30;45.11;42.86;48.64;;
49543;Laerm;35435;48.792;8.962;2022-09-21T00:06:02;45.09;42.94;56.30;;
49543;Laerm;35435;48.792;8.962;2022-09-21T00:08:28;45.19;42.98;50.05;;
49543;Laerm;35435;48.792;8.962;2022-09-21T00:10:53;45.05;41.79;52.77;;
49543;Laerm;35435;48.792;8.962;2022-09-21T00:13:19;45.48;41.94;57.74;;
49543;Laerm;35435;48.792;8.962;2022-09-21T00:15:45;46.08;43.08;53.96;;
49543;Laerm;35435;48.792;8.962;2022-09-21T00:18:10;46.21;43.15;51.92;;
49543;Laerm;35435;48.792;8.962;2022-09-21T00:20:35;46.86;43.05;52.85;;
49543;Laerm;35435;48.792;8.962;2022-09-21T00:23:01;45.63;42.18;51.90;;
49543;Laerm;35435;48.792;8.962;2022-09-21T00:25:26;45.73;42.08;52.03;;
49543;Laerm;35435;48.792;8.962;2022-09-21T00:27:52;45.82;43.05;52.28;;
49543;Laerm;35435;48.792;8.962;2022-09-21T00:30:18;47.16;44.16;52.26;;
49543;Laerm;35435;48.792;8.962;2022-09-21T00:32:43;47.77;43.73;53.30;;
49543;Laerm;35435;48.792;8.962;2022-09-21T00:35:09;48.27;44.07;54.14;;
49543;Laerm;35435;48.792;8.962;2022-09-21T00:37:34;47.38;44.00;56.53;;
49543;Laerm;35435;48.792;8.962;2022-09-21T00:39:59;46.94;42.93;52.84;;
49543;Laerm;35435;48.792;8.962;2022-09-21T00:42:26;48.12;43.49;59.62;;
49543;Laerm;35435;48.792;8.962;2022-09-21T00:44:52;48.51;43.14;58.85;;
49543;Laerm;35435;48.792;8.962;2022-09-21T00:47:21;47.50;43.62;55.11;;
49543;Laerm;35435;48.792;8.962;2022-09-21T00:49:47;46.68;43.06;52.83;;
49543;Laerm;35435;48.792;8.962;2022-09-21T00:52:14;46.00;42.78;51.92;;
49543;Laerm;35435;48.792;8.962;2022-09-21T00:54:50;45.39;42.78;49.51;;
49543;Laerm;35435;48.792;8.962;2022-09-21T00:57:12;46.21;42.43;53.22;;
49543;Laerm;35435;48.792;8.962;2022-09-21T00:59:38;46.63;42.87;55.53;;
49543;Laerm;35435;48.792;8.962;2022-09-21T01:02:05;45.81;43.04;55.95;;
49543;Laerm;35435;48.792;8.962;2022-09-21T01:04:31;46.77;43.01;54.27;;
49543;Laerm;35435;48.792;8.962;2022-09-21T01:06:57;45.34;42.09;54.31;;
49543;Laerm;35435;48.792;8.962;2022-09-21T01:09:23;47.42;44.41;54.25;;
49543;Laerm;35435;48.792;8.962;2022-09-21T01:11:57;46.35;42.68;53.65;;
49543;Laerm;35435;48.792;8.962;2022-09-21T01:24:56;45.00;42.71;48.30;;
49543;Laerm;35435;48.792;8.962;2022-09-21T01:29:47;48.00;44.53;53.70;;
49543;Laerm;35435;48.792;8.962;2022-09-21T01:32:16;45.98;43.83;56.32;;
49543;Laerm;35435;48.792;8.962;2022-09-21T01:34:47;46.72;44.05;50.72;;
49543;Laerm;35435;48.792;8.962;2022-09-21T01:37:28;46.32;43.33;53.53;;
49543;Laerm;35435;48.792;8.962;2022-09-21T01:39:50;46.40;43.15;58.53;;
49543;Laerm;35435;48.792;8.962;2022-09-21T01:42:16;47.27;44.00;51.51;;
49543;Laerm;35435;48.792;8.962;2022-09-21T01:44:43;47.30;44.01;63.94;;
49543;Laerm;35435;48.792;8.962;2022-09-21T01:47:10;45.79;43.50;50.02;;
49543;Laerm;35435;48.792;8.962;2022-09-21T01:49:42;46.50;43.44;52.13;;
49543;Laerm;35435;48.792;8.962;2022-09-21T01:52:10;46.26;43.65;50.65;;
49543;Laerm;35435;48.792;8.962;2022-09-21T01:54:39;46.79;43.87;51.90;;
49543;Laerm;35435;48.792;8.962;2022-09-21T01:57:04;47.07;43.87;52.34;;
49543;Laerm;35435;48.792;8.962;2022-09-21T01:59:31;47.45;44.05;58.84;;
49543;Laerm;35435;48.792;8.962;2022-09-21T02:01:57;57.37;43.69;79.46;;
49543;Laerm;35435;48.792;8.962;2022-09-21T02:04:24;47.09;44.04;51.40;;
49543;Laerm;35435;48.792;8.962;2022-09-21T02:06:49;46.34;42.96;55.39;;
49543;Laerm;35435;48.792;8.962;2022-09-21T02:09:15;45.79;43.22;50.58;;
49543;Laerm;35435;48.792;8.962;2022-09-21T02:11:41;45.80;43.58;49.77;;
49543;Laerm;35435;48.792;8.962;2022-09-21T02:14:09;46.20;43.66;50.78;;
49543;Laerm;35435;48.792;8.962;2022-09-21T02:16:36;46.92;43.57;51.50;;
49543;Laerm;35435;48.792;8.962;2022-09-21T02:19:14;47.07;43.42;54.11;;
49543;Laerm;35435;48.792;8.962;2022-09-21T02:26:59;65.84;44.29;78.23;;
49543;Laerm;35435;48.792;8.962;2022-09-21T02:31:51;49.78;45.72;54.82;;
49543;Laerm;35435;48.792;8.962;2022-09-21T02:34:21;50.31;46.10;55.20;;
49543;Laerm;35435;48.792;8.962;2022-09-21T02:36:49;50.18;45.52;55.39;;
49543;Laerm;35435;48.792;8.962;2022-09-21T02:39:16;51.18;46.56;58.33;;
49543;Laerm;35435;48.792;8.962;2022-09-21T02:41:55;51.08;45.95;58.36;;
49543;Laerm;35435;48.792;8.962;2022-09-21T02:46:50;59.95;44.51;76.23;;
49543;Laerm;35435;48.792;8.962;2022-09-21T02:49:18;48.12;44.37;54.49;;
49543;Laerm;35435;48.792;8.962;2022-09-21T02:51:52;57.32;44.04;78.39;;
49543;Laerm;35435;48.792;8.962;2022-09-21T02:54:20;49.10;44.35;59.44;;
49543;Laerm;35435;48.792;8.962;2022-09-21T02:56:46;48.98;45.01;54.35;;
49543;Laerm;35435;48.792;8.962;2022-09-21T02:59:13;48.86;45.53;54.62;;
49543;Laerm;35435;48.792;8.962;2022-09-21T03:01:39;54.51;46.00;73.59;;
49543;Laerm;35435;48.792;8.962;2022-09-21T03:04:05;50.83;45.71;58.77;;
49543;Laerm;35435;48.792;8.962;2022-09-21T03:06:30;52.36;47.18;63.30;;
49543;Laerm;35435;48.792;8.962;2022-09-21T03:08:57;51.29;46.27;55.50;;
49543;Laerm;35435;48.792;8.962;2022-09-21T03:11:23;50.69;46.49;55.22;;
49543;Laerm;35435;48.792;8.962;2022-09-21T03:13:48;51.59;47.99;57.20;;
49543;Laerm;35435;48.792;8.962;2022-09-21T03:16:14;58.72;46.68;75.71;;
49543;Laerm;35435;48.792;8.962;2022-09-21T03:18:39;65.93;47.93;82.85;;
49543;Laerm;35435;48.792;8.962;2022-09-21T03:21:06;51.43;46.02;56.64;;
49543;Laerm;35435;48.792;8.962;2022-09-21T03:23:31;56.35;47.60;69.90;;
49543;Laerm;35435;48.792;8.962;2022-09-21T03:25:57;51.83;47.36;56.43;;
49543;Laerm;35435;48.792;8.962;2022-09-21T03:28:22;51.04;47.04;55.91;;
49543;Laerm;35435;48.792;8.962;2022-09-21T03:30:48;60.53;47.06;84.41;;
49543;Laerm;35435;48.792;8.962;2022-09-21T03:33:14;57.07;48.58;72.48;;
49543;Laerm;35435;48.792;8.962;2022-09-21T03:35:40;56.70;47.35;73.97;;
49543;Laerm;35435;48.792;8.962;2022-09-21T03:38:06;51.97;47.84;57.28;;
49543;Laerm;35435;48.792;8.962;2022-09-21T03:40:32;51.77;47.27;56.85;;
49543;Laerm;35435;48.792;8.962;2022-09-21T03:42:57;52.95;48.57;57.59;;
49543;Laerm;35435;48.792;8.962;2022-09-21T03:45:23;60.24;48.31;78.56;;
49543;Laerm;35435;48.792;8.962;2022-09-21T03:47:54;57.22;47.74;74.67;;
49543;Laerm;35435;48.792;8.962;2022-09-21T03:50:20;52.25;47.24;56.30;;
49543;Laerm;35435;48.792;8.962;2022-09-21T03:52:46;51.70;47.36;56.96;;
49543;Laerm;35435;48.792;8.962;2022-09-21T03:55:11;50.36;46.70;57.46;;
49543;Laerm;35435;48.792;8.962;2022-09-21T03:57:37;51.16;46.99;56.37;;
49543;Laerm;35435;48.792;8.962;2022-09-21T04:00:04;51.53;48.02;55.88;;
49543;Laerm;35435;48.792;8.962;2022-09-21T04:02:30;60.10;46.81;79.37;;
49543;Laerm;35435;48.792;8.962;2022-09-21T04:04:56;49.74;46.19;56.30;;
49543;Laerm;35435;48.792;8.962;2022-09-21T04:07:21;53.25;46.61;68.86;;
49543;Laerm;35435;48.792;8.962;2022-09-21T04:09:46;51.10;47.49;55.65;;
49543;Laerm;35435;48.792;8.962;2022-09-21T04:12:12;52.45;48.13;57.99;;
49543;Laerm;35435;48.792;8.962;2022-09-21T04:14:37;55.76;49.25;71.51;;
49543;Laerm;35435;48.792;8.962;2022-09-21T04:17:03;59.05;49.86;75.30;;
49543;Laerm;35435;48.792;8.962;2022-09-21T04:19:28;59.30;49.72;78.03;;
49543;Laerm;35435;48.792;8.962;2022-09-21T04:21:53;54.76;49.61;59.68;;
49543;Laerm;35435;48.792;8.962;2022-09-21T04:24:20;54.10;49.98;57.55;;
49543;Laerm;35435;48.792;8.962;2022-09-21T04:26:45;53.89;48.84;57.63;;
49543;Laerm;35435;48.792;8.962;2022-09-21T04:29:11;52.65;48.20;57.47;;
49543;Laerm;35435;48.792;8.962;2022-09-21T04:31:37;61.06;47.02;83.23;;
49543;Laerm;35435;48.792;8.962;2022-09-21T04:34:02;59.40;48.42;74.49;;
49543;Laerm;35435;48.792;8.962;2022-09-21T04:36:28;56.00;49.02;71.61;;
49543;Laerm;35435;48.792;8.962;2022-09-21T04:38:53;52.03;47.61;55.88;;
49543;Laerm;35435;48.792;8.962;2022-09-21T04:41:19;51.75;46.09;69.41;;
49543;Laerm;35435;48.792;8.962;2022-09-21T04:43:45;54.36;46.62;70.82;;
49543;Laerm;35435;48.792;8.962;2022-09-21T04:46:12;61.81;49.60;76.05;;
49543;Laerm;35435;48.792;8.962;2022-09-21T04:48:38;54.09;49.65;58.64;;
49543;Laerm;35435;48.792;8.962;2022-09-21T04:51:03;54.92;50.17;58.90;;
49543;Laerm;35435;48.792;8.962;2022-09-21T04:53:31;53.88;49.26;58.28;;
49543;Laerm;35435;48.792;8.962;2022-09-21T04:55:57;54.47;50.34;59.35;;
49543;Laerm;35435;48.792;8.962;2022-09-21T04:58:22;55.22;50.81;59.22;;
49543;Laerm;35435;48.792;8.962;2022-09-21T05:00:51;60.29;50.25;80.78;;
49543;Laerm;35435;48.792;8.962;2022-09-21T05:03:15;54.65;50.25;59.11;;
49543;Laerm;35435;48.792;8.962;2022-09-21T05:05:45;62.03;49.72;77.57;;
49543;Laerm;35435;48.792;8.962;2022-09-21T05:08:08;53.10;49.71;57.34;;
49543;Laerm;35435;48.792;8.962;2022-09-21T05:10:33;54.73;50.27;59.31;;
49543;Laerm;35435;48.792;8.962;2022-09-21T05:12:59;56.88;50.02;71.70;;
49543;Laerm;35435;48.792;8.962;2022-09-21T05:15:24;60.93;50.80;78.45;;
49543;Laerm;35435;48.792;8.962;2022-09-21T05:17:50;58.20;49.95;73.18;;
49543;Laerm;35435;48.792;8.962;2022-09-21T05:20:15;63.68;50.65;75.35;;
49543;Laerm;35435;48.792;8.962;2022-09-21T05:22:40;56.99;51.98;61.42;;
49543;Laerm;35435;48.792;8.962;2022-09-21T05:25:08;57.07;52.12;63.91;;
49543;Laerm;35435;48.792;8.962;2022-09-21T05:27:33;65.58;51.18;86.02;;
49543;Laerm;35435;48.792;8.962;2022-09-21T05:29:59;55.43;50.93;60.15;;
49543;Laerm;35435;48.792;8.962;2022-09-21T05:40:08;54.38;49.53;64.74;;
49543;Laerm;35435;48.792;8.962;2022-09-21T05:42:34;56.72;49.57;73.88;;
49543;Laerm;35435;48.792;8.962;2022-09-21T05:45:00;58.58;48.54;78.27;;
49543;Laerm;35435;48.792;8.962;2022-09-21T05:47:35;59.66;50.21;74.24;;
49543;Laerm;35435;48.792;8.962;2022-09-21T05:50:02;56.46;48.82;75.85;;
49543;Laerm;35435;48.792;8.962;2022-09-21T05:52:33;53.80;49.55;62.43;;
49543;Laerm;35435;48.792;8.962;2022-09-21T05:55:43;52.86;48.93;58.68;;
49543;Laerm;35435;48.792;8.962;2022-09-21T05:57:27;52.16;48.65;56.60;;
49543;Laerm;35435;48.792;8.962;2022-09-21T06:02:43;60.64;49.85;76.07;;
49543;Laerm;35435;48.792;8.962;2022-09-21T06:05:10;56.87;48.81;74.23;;
49543;Laerm;35435;48.792;8.962;2022-09-21T06:07:36;53.17;49.18;57.12;;
49543;Laerm;35435;48.792;8.962;2022-09-21T06:10:02;53.45;48.89;59.04;;
49543;Laerm;35435;48.792;8.962;2022-09-21T06:12:27;56.15;48.55;73.17;;
49543;Laerm;35435;48.792;8.962;2022-09-21T06:14:53;60.26;48.09;82.50;;
49543;Laerm;35435;48.792;8.962;2022-09-21T06:17:20;59.08;47.50;74.65;;
49543;Laerm;35435;48.792;8.962;2022-09-21T06:19:45;52.22;48.20;62.07;;
49543;Laerm;35435;48.792;8.962;2022-09-21T06:22:10;52.03;48.36;59.07;;
49543;Laerm;35435;48.792;8.962;2022-09-21T06:24:36;61.06;47.13;77.64;;
49543;Laerm;35435;48.792;8.962;2022-09-21T06:27:01;50.53;46.73;62.82;;
49543;Laerm;35435;48.792;8.962;2022-09-21T06:29:27;51.21;47.87;56.13;;
49543;Laerm;35435;48.792;8.962;2022-09-21T06:31:52;60.00;46.40;77.02;;
49543;Laerm;35435;48.792;8.962;2022-09-21T06:34:17;48.58;45.75;56.32;;
49543;Laerm;35435;48.792;8.962;2022-09-21T06:36:43;53.98;46.35;71.63;;
49543;Laerm;35435;48.792;8.962;2022-09-21T06:39:10;58.57;46.39;76.56;;
49543;Laerm;35435;48.792;8.962;2022-09-21T06:41:35;50.38;46.65;56.10;;
49543;Laerm;35435;48.792;8.962;2022-09-21T06:44:01;54.01;46.71;68.86;;
49543;Laerm;35435;48.792;8.962;2022-09-21T06:46:26;59.41;47.25;75.48;;
49543;Laerm;35435;48.792;8.962;2022-09-21T06:48:52;51.04;47.59;59.34;;
49543;Laerm;35435;48.792;8.962;2022-09-21T06:51:18;50.79;46.27;60.67;;
49543;Laerm;35435;48.792;8.962;2022-09-21T06:53:45;50.59;46.75;57.66;;
49543;Laerm;35435;48.792;8.962;2022-09-21T06:56:10;49.84;45.76;58.32;;
49543;Laerm;35435;48.792;8.962;2022-09-21T06:58:36;48.72;45.31;56.75;;
49543;Laerm;35435;48.792;8.962;2022-09-21T07:01:13;48.05;44.69;55.66;;
49543;Laerm;35435;48.792;8.962;2022-09-21T07:03:35;58.25;45.13;76.08;;
49543;Laerm;35435;48.792;8.962;2022-09-21T07:06:01;47.93;45.12;56.63;;
49543;Laerm;35435;48.792;8.962;2022-09-21T07:08:27;63.96;45.24;75.78;;
49543;Laerm;35435;48.792;8.962;2022-09-21T07:10:52;56.37;44.57;75.14;;
49543;Laerm;35435;48.792;8.962;2022-09-21T07:13:18;48.09;44.89;58.43;;
49543;Laerm;35435;48.792;8.962;2022-09-21T07:15:43;59.40;45.73;76.94;;
49543;Laerm;35435;48.792;8.962;2022-09-21T07:18:12;51.49;45.01;70.09;;
49543;Laerm;35435;48.792;8.962;2022-09-21T07:20:38;48.14;44.25;56.55;;
49543;Laerm;35435;48.792;8.962;2022-09-21T07:23:11;47.04;44.30;55.95;;
49543;Laerm;35435;48.792;8.962;2022-09-21T07:25:39;46.97;44.53;54.32;;
49543;Laerm;35435;48.792;8.962;2022-09-21T07:28:04;47.48;44.77;54.65;;
49543;Laerm;35435;48.792;8.962;2022-09-21T07:30:30;57.24;44.70;77.09;;
49543;Laerm;35435;48.792;8.962;2022-09-21T07:32:55;57.68;44.60;73.87;;
49543;Laerm;35435;48.792;8.962;2022-09-21T07:35:23;55.26;44.06;73.37;;
49543;Laerm;35435;48.792;8.962;2022-09-21T07:37:48;46.50;44.09;55.24;;
49543;Laerm;35435;48.792;8.962;2022-09-21T07:40:14;46.93;44.16;54.83;;
49543;Laerm;35435;48.792;8.962;2022-09-21T07:42:39;47.33;44.05;65.65;;
49543;Laerm;35435;48.792;8.962;2022-09-21T07:45:05;57.15;43.95;78.15;;
49543;Laerm;35435;48.792;8.962;2022-09-21T07:47:30;58.31;43.57;72.86;;
49543;Laerm;35435;48.792;8.962;2022-09-21T07:49:56;46.68;43.82;59.51;;
49543;Laerm;35435;48.792;8.962;2022-09-21T07:52:21;61.77;43.18;73.78;;
49543;Laerm;35435;48.792;8.962;2022-09-21T07:54:47;45.93;43.06;57.63;;
49543;Laerm;35435;48.792;8.962;2022-09-21T07:57:12;45.52;43.08;63.35;;
49543;Laerm;35435;48.792;8.962;2022-09-21T07:59:56;47.75;43.13;65.70;;
49543;Laerm;35435;48.792;8.962;2022-09-21T08:02:22;60.12;42.65;79.21;;
49543;Laerm;35435;48.792;8.962;2022-09-21T08:04:48;46.92;43.19;61.22;;
49543;Laerm;35435;48.792;8.962;2022-09-21T08:07:13;45.43;42.44;54.47;;
49543;Laerm;35435;48.792;8.962;2022-09-21T08:09:38;46.89;42.85;64.15;;
49543;Laerm;35435;48.792;8.962;2022-09-21T08:12:05;45.79;42.37;54.90;;
49543;Laerm;35435;48.792;8.962;2022-09-21T08:14:31;58.14;43.10;76.29;;
49543;Laerm;35435;48.792;8.962;2022-09-21T08:16:56;55.71;42.22;75.86;;
49543;Laerm;35435;48.792;8.962;2022-09-21T08:19:22;45.20;42.72;53.11;;
49543;Laerm;35435;48.792;8.962;2022-09-21T08:21:49;45.76;42.53;63.70;;
49543;Laerm;35435;48.792;8.962;2022-09-21T08:24:15;45.39;42.59;55.63;;
49543;Laerm;35435;48.792;8.962;2022-09-21T08:26:40;45.87;42.26;56.81;;
49543;Laerm;35435;48.792;8.962;2022-09-21T08:29:06;46.85;42.93;55.30;;
49543;Laerm;35435;48.792;8.962;2022-09-21T08:31:32;59.76;43.53;75.94;;
49543;Laerm;35435;48.792;8.962;2022-09-21T08:33:57;45.79;42.75;53.76;;
49543;Laerm;35435;48.792;8.962;2022-09-21T08:36:23;47.50;43.18;61.94;;
49543;Laerm;35435;48.792;8.962;2022-09-21T08:38:49;46.65;42.13;54.70;;
49543;Laerm;35435;48.792;8.962;2022-09-21T08:41:19;48.51;43.81;57.09;;
49543;Laerm;35435;48.792;8.962;2022-09-21T08:43:51;47.57;43.89;54.11;;
49543;Laerm;35435;48.792;8.962;2022-09-21T08:46:21;58.82;43.31;72.59;;
49543;Laerm;35435;48.792;8.962;2022-09-21T08:48:55;46.86;43.43;57.17;;
49543;Laerm;35435;48.792;8.962;2022-09-21T08:51:22;49.26;44.53;57.21;;
49543;Laerm;35435;48.792;8.962;2022-09-21T08:53:50;48.31;42.97;61.60;;
49543;Laerm;35435;48.792;8.962;2022-09-21T08:56:16;50.17;44.27;63.59;;
49543;Laerm;35435;48.792;8.962;2022-09-21T08:58:43;48.75;43.44;64.00;;
49543;Laerm;35435;48.792;8.962;2022-09-21T09:09:01;50.50;44.46;71.13;;
49543;Laerm;35435;48.792;8.962;2022-09-21T09:11:36;46.86;43.17;59.29;;
49543;Laerm;35435;48.792;8.962;2022-09-21T09:14:06;49.53;44.63;62.90;;
49543;Laerm;35435;48.792;8.962;2022-09-21T09:16:45;60.58;45.16;78.56;;
49543;Laerm;35435;48.792;8.962;2022-09-21T09:19:19;49.00;44.33;59.46;;
49543;Laerm;35435;48.792;8.962;2022-09-21T09:21:44;48.59;44.42;59.97;;
49543;Laerm;35435;48.792;8.962;2022-09-21T09:24:11;49.62;43.68;61.67;;
49543;Laerm;35435;48.792;8.962;2022-09-21T09:26:40;50.93;44.48;59.81;;
49543;Laerm;35435;48.792;8.962;2022-09-21T09:31:49;59.21;45.33;77.95;;
49543;Laerm;35435;48.792;8.962;2022-09-21T09:34:29;63.62;44.48;87.70;;
49543;Laerm;35435;48.792;8.962;2022-09-21T09:36:58;50.57;43.33;67.61;;
49543;Laerm;35435;48.792;8.962;2022-09-21T09:39:24;48.06;43.00;64.39;;
49543;Laerm;35435;48.792;8.962;2022-09-21T09:47:10;57.93;45.08;78.02;;
49543;Laerm;35435;48.792;8.962;2022-09-21T09:52:10;50.96;45.57;64.16;;
49543;Laerm;35435;48.792;8.962;2022-09-21T09:54:37;50.01;44.03;57.98;;
49543;Laerm;35435;48.792;8.962;2022-09-21T09:57:03;48.93;43.77;58.24;;
49543;Laerm;35435;48.792;8.962;2022-09-21T09:59:31;51.78;46.04;60.39;;
49543;Laerm;35435;48.792;8.962;2022-09-21T10:02:01;60.64;45.50;77.39;;
49543;Laerm;35435;48.792;8.962;2022-09-21T10:04:27;50.10;44.22;60.11;;
49543;Laerm;35435;48.792;8.962;2022-09-21T10:06:53;51.34;46.01;59.34;;
49543;Laerm;35435;48.792;8.962;2022-09-21T10:09:28;50.14;44.82;58.55;;
49543;Laerm;35435;48.792;8.962;2022-09-21T10:11:57;50.80;45.64;56.68;;
49543;Laerm;35435;48.792;8.962;2022-09-21T10:14:22;59.23;45.39;80.24;;
49543;Laerm;35435;48.792;8.962;2022-09-21T10:16:49;53.03;45.59;63.47;;
49543;Laerm;35435;48.792;8.962;2022-09-21T10:19:17;55.70;44.46;69.92;;
49543;Laerm;35435;48.792;8.962;2022-09-21T10:21:43;57.42;45.35;87.39;;
49543;Laerm;35435;48.792;8.962;2022-09-21T10:26:43;50.90;45.40;67.55;;
49543;Laerm;35435;48.792;8.962;2022-09-21T10:34:23;49.59;43.74;60.22;;
49543;Laerm;35435;48.792;8.962;2022-09-21T10:36:50;48.71;43.95;68.00;;
49543;Laerm;35435;48.792;8.962;2022-09-21T10:39:20;46.34;43.31;57.55;;
49543;Laerm;35435;48.792;8.962;2022-09-21T10:41:51;48.71;42.61;57.94;;
49543;Laerm;35435;48.792;8.962;2022-09-21T10:44:14;48.66;44.03;57.90;;
49543;Laerm;35435;48.792;8.962;2022-09-21T10:46:40;56.00;44.75;73.48;;
49543;Laerm;35435;48.792;8.962;2022-09-21T10:49:12;56.26;45.25;72.76;;
49543;Laerm;35435;48.792;8.962;2022-09-21T10:51:33;50.29;45.83;60.98;;
49543;Laerm;35435;48.792;8.962;2022-09-21T10:53:59;49.79;44.19;60.86;;
49543;Laerm;35435;48.792;8.962;2022-09-21T10:56:25;50.17;44.50;60.53;;
49543;Laerm;35435;48.792;8.962;2022-09-21T11:01:35;57.17;45.80;75.71;;
49543;Laerm;35435;48.792;8.962;2022-09-21T11:04:07;58.00;46.09;72.43;;
49543;Laerm;35435;48.792;8.962;2022-09-21T11:06:34;51.31;45.61;61.21;;
49543;Laerm;35435;48.792;8.962;2022-09-21T11:09:04;51.79;46.14;64.92;;
49543;Laerm;35435;48.792;8.962;2022-09-21T11:11:31;50.14;44.44;58.64;;
49543;Laerm;35435;48.792;8.962;2022-09-21T11:16:34;58.46;45.70;78.83;;
49543;Laerm;35435;48.792;8.962;2022-09-21T11:21:45;51.92;44.05;73.98;;
49543;Laerm;35435;48.792;8.962;2022-09-21T11:26:43;57.40;44.65;74.82;;
49543;Laerm;35435;48.792;8.962;2022-09-21T11:29:20;49.97;44.65;62.97;;
49543;Laerm;35435;48.792;8.962;2022-09-21T11:34:32;50.81;45.44;59.20;;
49543;Laerm;35435;48.792;8.962;2022-09-21T11:36:59;50.51;45.27;57.89;;
49543;Laerm;35435;48.792;8.962;2022-09-21T11:44:43;57.21;44.53;77.80;;
49543;Laerm;35435;48.792;8.962;2022-09-21T11:50:00;57.01;46.11;73.46;;
49543;Laerm;35435;48.792;8.962;2022-09-21T12:00:21;51.30;45.00;62.62;;
49543;Laerm;35435;48.792;8.962;2022-09-21T12:05:43;51.46;46.88;61.61;;
49543;Laerm;35435;48.792;8.962;2022-09-21T12:08:18;51.50;46.27;58.19;;
49543;Laerm;35435;48.792;8.962;2022-09-21T12:10:52;52.16;46.86;62.22;;
49543;Laerm;35435;48.792;8.962;2022-09-21T12:13:30;51.80;46.79;61.47;;
49543;Laerm;35435;48.792;8.962;2022-09-21T12:21:14;50.29;45.37;61.01;;
49543;Laerm;35435;48.792;8.962;2022-09-21T12:23:44;48.12;44.10;57.64;;
49543;Laerm;35435;48.792;8.962;2022-09-21T12:26:10;51.28;44.87;59.57;;
49543;Laerm;35435;48.792;8.962;2022-09-21T12:28:53;50.57;45.07;60.61;;
49543;Laerm;35435;48.792;8.962;2022-09-21T12:31:22;59.92;45.66;77.04;;
49543;Laerm;35435;48.792;8.962;2022-09-21T12:33:52;49.65;44.38;57.48;;
49543;Laerm;35435;48.792;8.962;2022-09-21T12:36:23;51.60;45.88;71.27;;
49543;Laerm;35435;48.792;8.962;2022-09-21T12:46:33;62.41;44.63;79.82;;
49543;Laerm;35435;48.792;8.962;2022-09-21T12:49:00;53.22;47.15;64.99;;
49543;Laerm;35435;48.792;8.962;2022-09-21T12:51:29;52.93;47.88;60.92;;
49543;Laerm;35435;48.792;8.962;2022-09-21T12:53:55;51.20;46.30;60.81;;
49543;Laerm;35435;48.792;8.962;2022-09-21T13:01:31;49.44;44.52;60.77;;
49543;Laerm;35435;48.792;8.962;2022-09-21T13:04:00;61.30;45.15;79.81;;
49543;Laerm;35435;48.792;8.962;2022-09-21T13:09:07;52.66;45.83;65.07;;
49543;Laerm;35435;48.792;8.962;2022-09-21T13:11:33;59.69;45.62;76.15;;
49543;Laerm;35435;48.792;8.962;2022-09-21T13:13:59;50.81;45.77;60.66;;
49543;Laerm;35435;48.792;8.962;2022-09-21T13:16:30;59.59;45.30;76.06;;
49543;Laerm;35435;48.792;8.962;2022-09-21T13:18:59;56.16;43.51;72.42;;
49543;Laerm;35435;48.792;8.962;2022-09-21T13:21:24;50.36;44.54;73.18;;
49543;Laerm;35435;48.792;8.962;2022-09-21T13:26:29;52.80;45.73;59.96;;
49543;Laerm;35435;48.792;8.962;2022-09-21T13:36:41;56.92;47.62;73.30;;
49543;Laerm;35435;48.792;8.962;2022-09-21T13:41:35;53.90;49.44;65.31;;
49543;Laerm;35435;48.792;8.962;2022-09-21T13:44:04;54.12;47.86;69.93;;
49543;Laerm;35435;48.792;8.962;2022-09-21T13:49:12;52.67;48.12;58.82;;
49543;Laerm;35435;48.792;8.962;2022-09-21T13:51:32;58.45;47.57;73.33;;
49543;Laerm;35435;48.792;8.962;2022-09-21T13:53:57;50.14;45.65;59.99;;
49543;Laerm;35435;48.792;8.962;2022-09-21T13:56:26;52.15;46.43;59.12;;
49543;Laerm;35435;48.792;8.962;2022-09-21T13:58:54;52.91;47.48;60.50;;
49543;Laerm;35435;48.792;8.962;2022-09-21T14:01:39;60.61;46.91;79.61;;
49543;Laerm;35435;48.792;8.962;2022-09-21T14:03:52;51.75;47.19;60.04;;
49543;Laerm;35435;48.792;8.962;2022-09-21T14:06:22;58.92;46.86;73.48;;
49543;Laerm;35435;48.792;8.962;2022-09-21T14:08:51;52.16;46.22;59.07;;
49543;Laerm;35435;48.792;8.962;2022-09-21T14:11:21;57.81;47.65;75.36;;
49543;Laerm;35435;48.792;8.962;2022-09-21T14:13:58;51.69;46.79;57.19;;
49543;Laerm;35435;48.792;8.962;2022-09-21T14:19:03;52.36;47.14;63.46;;
49543;Laerm;35435;48.792;8.962;2022-09-21T14:21:29;59.01;47.76;73.80;;
49543;Laerm;35435;48.792;8.962;2022-09-21T14:29:04;50.72;45.57;61.21;;
49543;Laerm;35435;48.792;8.962;2022-09-21T14:31:28;60.59;48.19;79.16;;
49543;Laerm;35435;48.792;8.962;2022-09-21T14:33:55;54.57;46.80;71.21;;
49543;Laerm;35435;48.792;8.962;2022-09-21T14:36:30;60.67;48.46;75.12;;
49543;Laerm;35435;48.792;8.962;2022-09-21T14:38:54;57.11;48.15;74.39;;
49543;Laerm;35435;48.792;8.962;2022-09-21T14:41:22;53.43;48.00;60.08;;
49543;Laerm;35435;48.792;8.962;2022-09-21T14:43:48;52.49;47.44;64.89;;
49543;Laerm;35435;48.792;8.962;2022-09-21T14:49:21;58.23;46.18;76.43;;
49543;Laerm;35435;48.792;8.962;2022-09-21T14:51:49;64.20;48.22;76.64;;
49543;Laerm;35435;48.792;8.962;2022-09-21T15:01:56;59.43;48.09;76.20;;
49543;Laerm;35435;48.792;8.962;2022-09-21T15:04:31;51.68;46.74;63.07;;
49543;Laerm;35435;48.792;8.962;2022-09-21T15:09:57;52.52;46.94;58.98;;
49543;Laerm;35435;48.792;8.962;2022-09-21T15:12:40;61.75;47.95;75.60;;
49543;Laerm;35435;48.792;8.962;2022-09-21T15:17:33;62.46;49.32;78.52;;
49543;Laerm;35435;48.792;8.962;2022-09-21T15:19:58;61.87;48.78;79.13;;
49543;Laerm;35435;48.792;8.962;2022-09-21T15:22:27;53.41;46.05;60.61;;
49543;Laerm;35435;48.792;8.962;2022-09-21T15:27:21;52.28;46.85;59.42;;
49543;Laerm;35435;48.792;8.962;2022-09-21T15:29:49;52.12;47.27;58.85;;
49543;Laerm;35435;48.792;8.962;2022-09-21T15:32:32;59.84;46.52;76.82;;
49543;Laerm;35435;48.792;8.962;2022-09-21T15:34:58;58.05;45.91;74.80;;
49543;Laerm;35435;48.792;8.962;2022-09-21T15:37:26;54.35;46.70;68.97;;
49543;Laerm;35435;48.792;8.962;2022-09-21T15:39:59;53.15;46.76;59.11;;
49543;Laerm;35435;48.792;8.962;2022-09-21T15:42:25;57.51;46.24;74.07;;
49543;Laerm;35435;48.792;8.962;2022-09-21T15:44:53;61.36;48.67;81.06;;
49543;Laerm;35435;48.792;8.962;2022-09-21T15:47:19;53.24;48.80;60.11;;
49543;Laerm;35435;48.792;8.962;2022-09-21T15:49:45;65.26;48.61;81.03;;
49543;Laerm;35435;48.792;8.962;2022-09-21T15:52:21;59.25;48.37;73.90;;
49543;Laerm;35435;48.792;8.962;2022-09-21T15:54:59;54.04;48.29;64.95;;
49543;Laerm;35435;48.792;8.962;2022-09-21T15:57:33;53.04;46.08;64.10;;
49543;Laerm;35435;48.792;8.962;2022-09-21T16:00:16;52.70;46.95;59.51;;
49543;Laerm;35435;48.792;8.962;2022-09-21T16:02:34;63.17;49.54;79.77;;
49543;Laerm;35435;48.792;8.962;2022-09-21T16:04:59;56.94;48.07;75.09;;
49543;Laerm;35435;48.792;8.962;2022-09-21T16:09:52;52.52;47.27;60.17;;
49543;Laerm;35435;48.792;8.962;2022-09-21T16:12:27;53.67;47.19;59.19;;
49543;Laerm;35435;48.792;8.962;2022-09-21T16:14:46;61.20;47.41;76.21;;
49543;Laerm;35435;48.792;8.962;2022-09-21T16:17:19;53.27;47.51;64.42;;
49543;Laerm;35435;48.792;8.962;2022-09-21T16:24:53;53.03;46.93;59.43;;
49543;Laerm;35435;48.792;8.962;2022-09-21T16:27:17;51.54;46.52;57.77;;